createdAt,value
2018-09-26T00:00:52.124Z,99.99
2018-09-26T00:01:52.102Z,99.99
2018-09-26T00:02:52.110Z,99.99
2018-09-26T00:03:52.063Z,99.99
2018-09-26T00:04:52.039Z,99.99
2018-09-26T00:05:52.012Z,99.99
2018-09-26T00:06:52.003Z,99.99
2018-09-26T00:07:51.973Z,99.99
2018-09-26T00:08:51.953Z,99.99
2018-09-26T00:09:51.926Z,99.99
2018-09-26T00:10:51.903Z,99.99
2018-09-26T00:11:51.883Z,99.99
2018-09-26T00:12:51.865Z,99.99
2018-09-26T00:13:51.866Z,99.99
2018-09-26T00:14:51.807Z,99.99
2018-09-26T00:15:51.812Z,99.99
2018-09-26T00:16:51.782Z,99.99
2018-09-26T00:17:51.761Z,99.99
2018-09-26T00:18:51.724Z,99.99
2018-09-26T00:19:51.693Z,99.99
2018-09-26T00:20:51.700Z,99.99
2018-09-26T00:21:51.656Z,99.99
2018-09-26T00:22:51.661Z,99.99
2018-09-26T00:23:51.653Z,99.99
2018-09-26T00:24:51.628Z,99.99
2018-09-26T00:25:51.561Z,99.99
2018-09-26T00:26:51.560Z,99.99
2018-09-26T00:27:51.516Z,99.99
2018-09-26T00:28:51.508Z,99.99
2018-09-26T00:29:51.472Z,99.99
2018-09-26T00:30:51.458Z,99.99
2018-09-26T00:31:51.429Z,99.99
2018-09-26T00:32:51.418Z,99.99
2018-09-26T00:33:51.414Z,99.99
2018-09-26T00:34:51.366Z,99.99
2018-09-26T00:35:51.413Z,99.99
2018-09-26T00:36:51.317Z,99.99
2018-09-26T00:37:51.295Z,99.99
2018-09-26T00:38:51.276Z,99.99
2018-09-26T00:39:51.247Z,99.99
2018-09-26T00:40:51.229Z,99.99
2018-09-26T00:41:51.209Z,99.99
2018-09-26T00:42:51.210Z,99.99
2018-09-26T00:43:51.162Z,99.99
2018-09-26T00:44:51.137Z,99.99
2018-09-26T00:45:51.116Z,99.99
2018-09-26T00:46:51.091Z,99.99
2018-09-26T00:47:51.100Z,99.99
2018-09-26T00:48:51.068Z,99.99
2018-09-26T00:49:51.021Z,99.99
2018-09-26T00:50:51.013Z,99.99
2018-09-26T00:51:50.981Z,99.99
2018-09-26T00:52:50.972Z,99.99
2018-09-26T00:53:50.943Z,99.99
2018-09-26T00:54:50.915Z,99.99
2018-09-26T00:55:50.898Z,99.99
2018-09-26T00:56:50.880Z,99.99
2018-09-26T00:57:50.864Z,99.99
2018-09-26T00:58:50.828Z,99.99
2018-09-26T00:59:50.831Z,99.99
2018-09-26T01:00:50.784Z,99.99
2018-09-26T01:01:50.760Z,99.99
2018-09-26T01:02:50.732Z,99.99
2018-09-26T01:03:50.716Z,99.41
2018-09-26T01:04:50.688Z,99.60
2018-09-26T01:05:50.686Z,99.50
2018-09-26T01:06:50.664Z,99.50
2018-09-26T01:07:50.629Z,99.98
2018-09-26T01:08:50.621Z,99.41
2018-09-26T01:09:50.579Z,99.69
2018-09-26T01:10:50.578Z,99.60
2018-09-26T01:11:50.535Z,99.31
2018-09-26T01:12:50.518Z,99.60
2018-09-26T01:13:50.487Z,99.99
2018-09-26T01:14:50.467Z,99.99
2018-09-26T01:15:50.465Z,99.99
2018-09-26T01:16:50.424Z,99.31
2018-09-26T01:17:50.401Z,99.60
2018-09-26T01:18:50.388Z,98.83
2018-09-26T01:19:50.357Z,99.41
2018-09-26T01:20:50.328Z,99.27
2018-09-26T01:21:50.316Z,99.27
2018-09-26T01:22:50.301Z,99.27
2018-09-26T01:23:50.275Z,99.55
2018-09-26T01:24:50.246Z,99.12
2018-09-26T01:25:50.222Z,99.41
2018-09-26T01:26:50.217Z,99.41
2018-09-26T01:27:50.176Z,99.74
2018-09-26T01:28:50.174Z,99.17
2018-09-26T01:29:50.137Z,99.17
2018-09-26T01:30:50.110Z,99.36
2018-09-26T01:31:50.107Z,99.22
2018-09-26T01:32:50.071Z,99.22
2018-09-26T01:33:50.057Z,99.12
2018-09-26T01:34:50.024Z,99.31
2018-09-26T01:35:50.005Z,99.02
2018-09-26T01:36:49.981Z,99.12
2018-09-26T01:37:49.983Z,99.50
2018-09-26T01:38:49.959Z,99.22
2018-09-26T01:39:49.918Z,99.31
2018-09-26T01:40:49.901Z,99.69
2018-09-26T01:41:49.886Z,99.31
2018-09-26T01:42:49.851Z,99.22
2018-09-26T01:43:49.815Z,99.41
2018-09-26T01:44:49.812Z,99.41
2018-09-26T01:45:49.777Z,99.46
2018-09-26T01:46:49.753Z,99.79
2018-09-26T01:47:49.733Z,99.99
2018-09-26T01:48:49.729Z,99.98
2018-09-26T01:49:49.688Z,99.99
2018-09-26T01:50:49.666Z,99.98
2018-09-26T01:51:49.651Z,99.98
2018-09-26T01:52:49.623Z,99.99
2018-09-26T01:53:49.643Z,99.99
2018-09-26T01:54:49.577Z,99.99
2018-09-26T01:55:49.556Z,99.99
2018-09-26T01:56:49.558Z,99.99
2018-09-26T01:57:49.556Z,99.99
2018-09-26T01:58:49.492Z,99.99
2018-09-26T01:59:49.464Z,99.88
2018-09-26T02:00:49.435Z,99.99
2018-09-26T02:01:49.444Z,99.99
2018-09-26T02:02:49.418Z,99.99
2018-09-26T02:03:49.369Z,99.99
2018-09-26T02:04:49.356Z,99.99
2018-09-26T02:05:49.331Z,99.99
2018-09-26T02:06:49.309Z,99.99
2018-09-26T02:07:49.288Z,99.98
2018-09-26T02:08:49.273Z,99.99
2018-09-26T02:09:49.250Z,99.98
2018-09-26T02:10:49.213Z,99.99
2018-09-26T02:11:49.191Z,99.99
2018-09-26T02:12:49.198Z,99.98
2018-09-26T02:13:49.158Z,99.99
2018-09-26T02:14:49.131Z,99.99
2018-09-26T02:15:49.099Z,99.99
2018-09-26T02:16:49.078Z,99.99
2018-09-26T02:17:49.064Z,99.99
2018-09-26T02:18:49.042Z,99.99
2018-09-26T02:19:49.009Z,99.99
2018-09-26T02:20:49.000Z,99.99
2018-09-26T02:21:48.966Z,99.99
2018-09-26T02:22:48.948Z,99.99
2018-09-26T02:23:49.035Z,99.99
2018-09-26T02:24:48.910Z,99.99
2018-09-26T02:25:48.913Z,99.99
2018-09-26T02:26:48.860Z,99.99
2018-09-26T02:27:48.835Z,99.99
2018-09-26T02:28:48.841Z,99.99
2018-09-26T02:29:48.803Z,99.99
2018-09-26T02:30:48.775Z,99.99
2018-09-26T02:31:48.749Z,99.99
2018-09-26T02:32:48.730Z,99.99
2018-09-26T02:33:48.704Z,99.99
2018-09-26T02:34:48.678Z,99.99
2018-09-26T02:35:48.658Z,99.99
2018-09-26T02:36:48.629Z,99.99
2018-09-26T02:37:48.617Z,99.99
2018-09-26T02:38:48.590Z,99.99
2018-09-26T02:39:48.567Z,99.99
2018-09-26T02:40:48.554Z,99.99
2018-09-26T02:41:48.531Z,99.99
2018-09-26T02:42:48.503Z,99.99
2018-09-26T02:44:48.456Z,99.99
2018-09-26T02:45:48.435Z,99.99
2018-09-26T02:46:48.415Z,99.99
2018-09-26T02:47:48.390Z,99.99
2018-09-26T02:48:48.365Z,99.99
2018-09-26T02:49:48.354Z,99.99
2018-09-26T02:50:48.321Z,99.99
2018-09-26T02:51:48.301Z,99.99
2018-09-26T02:52:48.276Z,99.99
2018-09-26T02:53:48.262Z,99.99
2018-09-26T02:54:48.234Z,99.99
2018-09-26T02:55:48.288Z,99.99
2018-09-26T02:56:48.194Z,99.99
2018-09-26T02:57:48.163Z,99.99
2018-09-26T02:58:48.141Z,99.99
2018-09-26T02:59:48.115Z,99.99
2018-09-26T03:00:48.097Z,99.99
2018-09-26T03:01:48.075Z,99.99
2018-09-26T03:02:48.057Z,99.99
2018-09-26T03:03:48.054Z,99.99
2018-09-26T03:04:48.020Z,99.99
2018-09-26T03:05:47.994Z,99.99
2018-09-26T03:06:47.992Z,99.99
2018-09-26T03:07:47.938Z,99.99
2018-09-26T03:08:47.918Z,99.99
2018-09-26T03:09:47.894Z,99.99
2018-09-26T03:10:47.929Z,99.99
2018-09-26T03:11:47.848Z,99.99
2018-09-26T03:12:47.827Z,99.99
2018-09-26T03:13:47.807Z,99.99
2018-09-26T03:14:47.786Z,99.99
2018-09-26T03:15:47.774Z,99.99
2018-09-26T03:16:47.746Z,99.99
2018-09-26T03:17:47.757Z,99.99
2018-09-26T03:18:47.689Z,99.99
2018-09-26T03:19:47.666Z,99.99
2018-09-26T03:20:47.655Z,99.99
2018-09-26T03:21:47.627Z,99.99
2018-09-26T03:22:47.606Z,99.99
2018-09-26T03:23:47.574Z,99.99
2018-09-26T03:24:47.550Z,99.99
2018-09-26T03:25:47.537Z,99.99
2018-09-26T03:26:47.511Z,99.99
2018-09-26T03:27:47.497Z,99.99
2018-09-26T03:28:47.479Z,99.99
2018-09-26T03:29:47.449Z,99.99
2018-09-26T03:30:47.428Z,99.99
2018-09-26T03:31:47.403Z,99.99
2018-09-26T03:32:47.375Z,99.99
2018-09-26T03:33:47.471Z,99.99
2018-09-26T03:34:47.332Z,99.99
2018-09-26T03:35:47.312Z,99.99
2018-09-26T03:36:47.296Z,99.99
2018-09-26T03:37:47.272Z,99.99
2018-09-26T03:38:47.251Z,99.99
2018-09-26T03:39:47.214Z,99.99
2018-09-26T03:40:47.190Z,99.99
2018-09-26T03:41:47.195Z,99.99
2018-09-26T03:42:47.148Z,99.99
2018-09-26T03:43:47.127Z,99.99
2018-09-26T03:44:47.106Z,99.99
2018-09-26T03:45:47.095Z,99.99
2018-09-26T03:46:47.055Z,99.99
2018-09-26T03:47:47.031Z,99.99
2018-09-26T03:48:47.046Z,99.99
2018-09-26T03:49:47.001Z,99.99
2018-09-26T03:50:46.972Z,99.99
2018-09-26T03:51:46.943Z,99.99
2018-09-26T03:52:46.924Z,99.99
2018-09-26T03:53:46.904Z,99.99
2018-09-26T03:54:46.881Z,99.99
2018-09-26T03:55:46.861Z,99.99
2018-09-26T03:56:46.828Z,99.99
2018-09-26T03:57:46.812Z,99.99
2018-09-26T03:58:46.793Z,99.99
2018-09-26T03:59:46.767Z,99.99
2018-09-26T04:00:46.740Z,99.99
2018-09-26T04:01:46.740Z,99.99
2018-09-26T04:02:46.706Z,99.99
2018-09-26T04:03:46.678Z,99.99
2018-09-26T04:04:46.706Z,99.99
2018-09-26T04:05:46.626Z,99.99
2018-09-26T04:06:46.609Z,99.99
2018-09-26T04:07:46.591Z,99.99
2018-09-26T04:08:46.607Z,99.99
2018-09-26T04:09:46.545Z,99.99
2018-09-26T04:10:46.543Z,99.99
2018-09-26T04:11:46.518Z,99.99
2018-09-26T04:12:46.612Z,99.99
2018-09-26T04:13:46.445Z,99.99
2018-09-26T04:14:46.443Z,99.99
2018-09-26T04:15:46.464Z,99.99
2018-09-26T04:16:46.386Z,99.99
2018-09-26T04:17:46.355Z,99.88
2018-09-26T04:18:46.336Z,99.74
2018-09-26T04:19:46.314Z,99.99
2018-09-26T04:20:46.294Z,99.99
2018-09-26T04:21:46.269Z,99.99
2018-09-26T04:22:46.250Z,99.99
2018-09-26T04:23:46.237Z,99.99
2018-09-26T04:24:46.205Z,99.99
2018-09-26T04:25:46.182Z,99.99
2018-09-26T04:26:46.215Z,99.99
2018-09-26T04:27:46.245Z,99.99
2018-09-26T04:28:46.105Z,99.99
2018-09-26T04:29:46.089Z,99.99
2018-09-26T04:30:46.088Z,99.99
2018-09-26T04:31:46.050Z,99.99
2018-09-26T04:32:46.140Z,99.84
2018-09-26T04:33:46.189Z,99.26
2018-09-26T04:34:45.984Z,99.26
2018-09-26T04:35:45.952Z,99.60
2018-09-26T04:36:45.938Z,98.97
2018-09-26T04:37:45.912Z,98.74
2018-09-26T04:38:46.022Z,98.93
2018-09-26T04:39:45.875Z,98.93
2018-09-26T04:40:45.847Z,99.50
2018-09-26T04:41:45.819Z,99.99
2018-09-26T04:42:45.791Z,99.99
2018-09-26T04:43:45.790Z,99.79
2018-09-26T04:44:45.774Z,99.12
2018-09-26T04:45:45.733Z,99.99
2018-09-26T04:46:45.711Z,99.99
2018-09-26T04:47:45.714Z,99.99
2018-09-26T04:48:45.682Z,99.22
2018-09-26T04:49:45.670Z,99.22
2018-09-26T04:50:45.681Z,98.93
2018-09-26T04:51:45.596Z,99.12
2018-09-26T04:52:45.593Z,99.50
2018-09-26T04:53:45.548Z,99.99
2018-09-26T04:54:45.548Z,99.88
2018-09-26T04:55:45.515Z,99.02
2018-09-26T04:56:45.480Z,98.55
2018-09-26T04:57:45.557Z,98.65
2018-09-26T04:58:45.473Z,98.93
2018-09-26T04:59:45.425Z,98.27
2018-09-26T05:00:45.409Z,99.02
2018-09-26T05:01:45.392Z,99.99
2018-09-26T05:02:45.359Z,99.31
2018-09-26T05:03:45.331Z,99.99
2018-09-26T05:04:45.318Z,99.22
2018-09-26T05:05:45.277Z,98.83
2018-09-26T05:06:45.258Z,98.74
2018-09-26T05:07:45.240Z,99.22
2018-09-26T05:08:45.215Z,99.99
2018-09-26T05:09:45.189Z,99.12
2018-09-26T05:10:45.168Z,99.99
2018-09-26T05:11:45.140Z,99.88
2018-09-26T05:12:45.129Z,99.60
2018-09-26T05:13:45.141Z,98.93
2018-09-26T05:14:45.085Z,98.93
2018-09-26T05:15:45.085Z,99.88
2018-09-26T05:16:45.029Z,99.88
2018-09-26T05:17:45.009Z,99.31
2018-09-26T05:18:44.992Z,99.79
2018-09-26T05:19:45.035Z,99.99
2018-09-26T05:20:44.951Z,99.12
2018-09-26T05:21:44.944Z,98.93
2018-09-26T05:22:44.982Z,99.22
2018-09-26T05:23:44.868Z,99.99
2018-09-26T05:24:44.852Z,99.22
2018-09-26T05:25:44.841Z,99.98
2018-09-26T05:26:44.829Z,99.99
2018-09-26T05:27:44.783Z,99.02
2018-09-26T05:28:44.770Z,99.02
2018-09-26T05:29:44.770Z,99.79
2018-09-26T05:30:44.734Z,98.55
2018-09-26T05:31:44.694Z,98.83
2018-09-26T05:32:44.670Z,98.83
2018-09-26T05:33:44.658Z,99.02
2018-09-26T05:34:44.629Z,99.31
2018-09-26T05:35:44.609Z,99.22
2018-09-26T05:36:44.614Z,98.83
2018-09-26T05:37:44.565Z,99.02
2018-09-26T05:38:44.538Z,99.02
2018-09-26T05:39:44.524Z,99.12
2018-09-26T05:40:44.500Z,98.93
2018-09-26T05:41:44.518Z,98.83
2018-09-26T05:42:44.451Z,98.65
2018-09-26T05:43:44.445Z,99.12
2018-09-26T05:44:44.424Z,99.12
2018-09-26T05:45:44.386Z,99.41
2018-09-26T05:46:44.360Z,98.74
2018-09-26T05:47:44.362Z,98.74
2018-09-26T05:48:44.321Z,99.12
2018-09-26T05:49:44.290Z,98.83
2018-09-26T05:50:44.269Z,98.55
2018-09-26T05:51:44.245Z,98.93
2018-09-26T05:52:44.224Z,99.31
2018-09-26T05:53:44.208Z,98.83
2018-09-26T05:54:44.186Z,98.65
2018-09-26T05:55:44.170Z,98.08
2018-09-26T05:56:44.154Z,97.98
2018-09-26T05:57:44.112Z,98.08
2018-09-26T05:58:44.094Z,99.12
2018-09-26T05:59:44.119Z,98.36
2018-09-26T06:00:44.042Z,98.55
2018-09-26T06:01:44.060Z,98.36
2018-09-26T06:02:44.001Z,98.22
2018-09-26T06:03:43.975Z,98.17
2018-09-26T06:04:43.960Z,98.69
2018-09-26T06:05:43.950Z,97.84
2018-09-26T06:06:43.915Z,97.84
2018-09-26T06:07:43.888Z,97.93
2018-09-26T06:08:43.863Z,97.36
2018-09-26T06:09:43.848Z,96.98
2018-09-26T06:10:43.827Z,97.27
2018-09-26T06:11:43.817Z,96.89
2018-09-26T06:12:43.794Z,97.08
2018-09-26T06:13:43.777Z,97.08
2018-09-26T06:14:43.743Z,97.17
2018-09-26T06:15:43.721Z,97.74
2018-09-26T06:16:43.686Z,96.98
2018-09-26T06:17:43.667Z,97.36
2018-09-26T06:18:43.650Z,97.36
2018-09-26T06:19:43.622Z,97.08
2018-09-26T06:20:43.598Z,97.27
2018-09-26T06:21:43.584Z,97.17
2018-09-26T06:22:43.557Z,97.36
2018-09-26T06:23:43.535Z,97.31
2018-09-26T06:24:43.643Z,97.74
2018-09-26T06:25:43.499Z,97.36
2018-09-26T06:26:43.478Z,97.31
2018-09-26T06:27:43.473Z,96.46
2018-09-26T06:28:43.427Z,96.27
2018-09-26T06:29:43.403Z,96.27
2018-09-26T06:30:43.412Z,96.46
2018-09-26T06:31:43.374Z,96.08
2018-09-26T06:32:43.349Z,96.75
2018-09-26T06:33:43.336Z,95.98
2018-09-26T06:34:43.299Z,96.08
2018-09-26T06:35:43.276Z,96.65
2018-09-26T06:36:43.252Z,96.08
2018-09-26T06:37:43.237Z,95.89
2018-09-26T06:38:43.229Z,95.60
2018-09-26T06:39:43.221Z,95.41
2018-09-26T06:40:43.170Z,96.08
2018-09-26T06:41:43.153Z,95.98
2018-09-26T06:42:43.125Z,95.22
2018-09-26T06:43:43.106Z,95.12
2018-09-26T06:44:43.077Z,94.56
2018-09-26T06:45:43.089Z,93.93
2018-09-26T06:46:43.035Z,94.65
2018-09-26T06:47:43.012Z,95.08
2018-09-26T06:48:43.030Z,94.13
2018-09-26T06:49:42.986Z,94.60
2018-09-26T06:50:42.951Z,95.08
2018-09-26T06:51:42.930Z,95.36
2018-09-26T06:52:42.908Z,95.08
2018-09-26T06:53:42.881Z,94.22
2018-09-26T06:54:42.859Z,93.55
2018-09-26T06:55:42.865Z,93.74
2018-09-26T06:56:42.832Z,93.17
2018-09-26T06:57:42.813Z,93.17
2018-09-26T06:58:42.790Z,94.17
2018-09-26T06:59:42.769Z,93.88
2018-09-26T07:00:42.743Z,93.60
2018-09-26T07:01:42.750Z,92.69
2018-09-26T07:02:42.721Z,93.22
2018-09-26T07:03:42.679Z,92.84
2018-09-26T07:04:42.652Z,92.74
2018-09-26T07:05:42.634Z,93.32
2018-09-26T07:06:42.607Z,92.74
2018-09-26T07:07:42.588Z,92.17
2018-09-26T07:08:42.578Z,91.88
2018-09-26T07:09:42.561Z,93.51
2018-09-26T07:10:42.523Z,92.65
2018-09-26T07:11:42.523Z,92.17
2018-09-26T07:12:42.489Z,92.27
2018-09-26T07:13:42.465Z,91.79
2018-09-26T07:14:42.443Z,92.08
2018-09-26T07:15:42.735Z,91.22
2018-09-26T07:16:42.404Z,91.60
2018-09-26T07:17:42.390Z,92.08
2018-09-26T07:18:42.354Z,92.08
2018-09-26T07:19:42.361Z,91.98
2018-09-26T07:20:42.340Z,91.74
2018-09-26T07:21:42.297Z,91.93
2018-09-26T07:22:42.318Z,92.08
2018-09-26T07:23:42.255Z,92.03
2018-09-26T07:24:42.239Z,91.64
2018-09-26T07:25:42.231Z,91.46
2018-09-26T07:26:42.217Z,91.83
2018-09-26T07:27:42.176Z,92.22
2018-09-26T07:28:42.152Z,92.32
2018-09-26T07:29:42.149Z,91.83
2018-09-26T07:30:42.133Z,92.12
2018-09-26T07:31:42.092Z,92.03
2018-09-26T07:32:42.073Z,92.12
2018-09-26T07:33:42.055Z,93.08
2018-09-26T07:34:42.030Z,91.64
2018-09-26T07:35:42.011Z,91.07
2018-09-26T07:36:41.983Z,91.36
2018-09-26T07:37:41.968Z,90.88
2018-09-26T07:38:41.975Z,91.07
2018-09-26T07:39:41.933Z,90.41
2018-09-26T07:40:41.927Z,91.17
2018-09-26T07:41:41.889Z,91.93
2018-09-26T07:42:41.858Z,91.74
2018-09-26T07:43:41.871Z,92.32
2018-09-26T07:44:41.849Z,91.64
2018-09-26T07:45:41.867Z,91.64
2018-09-26T07:46:41.796Z,92.03
2018-09-26T07:47:41.777Z,92.41
2018-09-26T07:48:41.757Z,91.74
2018-09-26T07:49:41.722Z,91.93
2018-09-26T07:50:41.701Z,90.41
2018-09-26T07:51:41.678Z,90.88
2018-09-26T07:52:41.664Z,91.27
2018-09-26T07:53:41.671Z,91.27
2018-09-26T07:54:41.615Z,90.22
2018-09-26T07:55:41.619Z,91.46
2018-09-26T07:56:41.596Z,91.64
2018-09-26T07:57:41.563Z,91.74
2018-09-26T07:58:41.551Z,91.46
2018-09-26T07:59:41.523Z,91.93
2018-09-26T08:00:41.524Z,91.93
2018-09-26T08:01:41.513Z,91.74
2018-09-26T08:02:41.483Z,92.12
2018-09-26T08:03:41.475Z,91.74
2018-09-26T08:04:41.406Z,91.64
2018-09-26T08:05:41.406Z,93.08
2018-09-26T08:06:41.392Z,92.22
2018-09-26T08:07:41.356Z,91.93
2018-09-26T08:08:41.329Z,92.60
2018-09-26T08:09:41.325Z,92.32
2018-09-26T08:10:41.290Z,92.41
2018-09-26T08:11:41.338Z,92.69
2018-09-26T08:12:41.241Z,93.27
2018-09-26T08:13:41.229Z,92.88
2018-09-26T08:14:41.234Z,94.03
2018-09-26T08:15:41.184Z,93.12
2018-09-26T08:16:41.156Z,92.55
2018-09-26T08:17:41.172Z,91.50
2018-09-26T08:18:41.185Z,91.98
2018-09-26T08:19:41.111Z,91.31
2018-09-26T08:20:41.099Z,91.78
2018-09-26T08:21:41.063Z,91.50
2018-09-26T08:22:41.037Z,91.21
2018-09-26T08:23:41.048Z,88.26
2018-09-26T08:24:41.006Z,88.64
2018-09-26T08:25:40.981Z,89.12
2018-09-26T08:26:40.960Z,89.69
2018-09-26T08:27:40.941Z,89.50
2018-09-26T08:28:40.920Z,89.12
2018-09-26T08:29:40.908Z,89.12
2018-09-26T08:30:40.878Z,89.12
2018-09-26T08:31:40.851Z,88.11
2018-09-26T08:32:40.858Z,87.25
2018-09-26T08:33:40.830Z,87.44
2018-09-26T08:34:40.814Z,87.82
2018-09-26T08:35:40.778Z,86.77
2018-09-26T08:36:40.784Z,87.44
2018-09-26T08:37:40.756Z,86.10
2018-09-26T08:38:40.740Z,84.67
2018-09-26T08:39:40.717Z,85.44
2018-09-26T08:40:40.669Z,86.05
2018-09-26T08:41:40.692Z,83.67
2018-09-26T08:42:40.630Z,84.33
2018-09-26T08:43:40.616Z,83.38
2018-09-26T08:44:40.607Z,81.18
2018-09-26T08:45:40.602Z,80.13
2018-09-26T08:46:40.554Z,81.56
2018-09-26T08:47:40.560Z,83.47
2018-09-26T08:48:40.514Z,84.72
2018-09-26T08:49:40.502Z,84.85
2018-09-26T08:50:40.468Z,83.04
2018-09-26T08:51:40.472Z,82.65
2018-09-26T08:52:40.438Z,83.61
2018-09-26T08:53:40.437Z,85.05
2018-09-26T08:54:40.393Z,81.51
2018-09-26T08:55:40.381Z,81.60
2018-09-26T08:56:40.352Z,78.45
2018-09-26T08:57:40.356Z,76.92
2018-09-26T08:58:40.309Z,77.21
2018-09-26T08:59:40.310Z,77.30
2018-09-26T09:00:40.290Z,76.92
2018-09-26T09:01:40.259Z,78.16
2018-09-26T09:02:40.239Z,74.05
2018-09-26T09:03:40.229Z,74.44
2018-09-26T09:04:40.212Z,75.10
2018-09-26T09:05:40.187Z,77.11
2018-09-26T09:06:40.173Z,78.64
2018-09-26T09:07:40.131Z,78.26
2018-09-26T09:08:40.112Z,77.97
2018-09-26T09:09:40.101Z,77.25
2018-09-26T09:10:40.078Z,77.87
2018-09-26T09:11:40.179Z,78.30
2018-09-26T09:12:40.054Z,79.64
2018-09-26T09:13:40.030Z,79.06
2018-09-26T09:14:40.183Z,80.69
2018-09-26T09:15:39.976Z,81.36
2018-09-26T09:16:39.989Z,81.36
2018-09-26T09:17:40.004Z,80.98
2018-09-26T09:18:39.948Z,81.36
2018-09-26T09:19:39.903Z,76.86
2018-09-26T09:20:39.889Z,77.92
2018-09-26T09:21:39.910Z,76.10
2018-09-26T09:22:39.844Z,75.34
2018-09-26T09:23:39.837Z,75.24
2018-09-26T09:24:39.804Z,73.99
2018-09-26T09:25:39.782Z,73.80
2018-09-26T09:26:39.788Z,76.29
2018-09-26T09:27:39.774Z,75.24
2018-09-26T09:28:39.741Z,73.14
2018-09-26T09:29:39.713Z,72.85
2018-09-26T09:30:39.686Z,72.66
2018-09-26T09:31:39.698Z,73.71
2018-09-26T09:32:54.520Z,73.04
2018-09-26T09:33:39.665Z,73.33
2018-09-26T09:34:39.634Z,74.09
2018-09-26T09:35:39.609Z,74.66
2018-09-26T09:36:39.643Z,76.20
2018-09-26T09:37:39.552Z,75.43
2018-09-26T09:38:39.536Z,72.56
2018-09-26T09:39:39.519Z,72.66
2018-09-26T09:40:39.523Z,72.56
2018-09-26T09:41:39.479Z,71.22
2018-09-26T09:42:39.455Z,72.85
2018-09-26T09:43:39.440Z,74.04
2018-09-26T09:44:39.423Z,74.04
2018-09-26T09:45:39.448Z,72.69
2018-09-26T09:46:39.400Z,73.84
2018-09-26T09:47:39.372Z,74.70
2018-09-26T09:48:39.357Z,74.80
2018-09-26T09:49:39.324Z,74.13
2018-09-26T09:50:39.329Z,72.60
2018-09-26T09:51:39.318Z,70.87
2018-09-26T09:52:39.266Z,70.68
2018-09-26T09:53:39.246Z,70.59
2018-09-26T09:54:39.227Z,71.16
2018-09-26T09:55:39.232Z,70.87
2018-09-26T09:56:39.210Z,71.42
2018-09-26T09:57:39.169Z,71.07
2018-09-26T09:58:39.164Z,71.26
2018-09-26T09:59:39.147Z,71.16
2018-09-26T10:00:39.115Z,71.64
2018-09-26T10:01:39.092Z,70.97
2018-09-26T10:02:39.146Z,70.87
2018-09-26T10:03:39.087Z,71.16
2018-09-26T10:04:39.046Z,71.73
2018-09-26T10:05:39.014Z,70.68
2018-09-26T10:06:39.004Z,70.59
2018-09-26T10:07:38.988Z,70.30
2018-09-26T10:08:39.017Z,71.07
2018-09-26T10:09:38.977Z,71.11
2018-09-26T10:10:38.940Z,70.53
2018-09-26T10:11:38.937Z,69.38
2018-09-26T10:12:38.908Z,68.80
2018-09-26T10:13:38.869Z,68.23
2018-09-26T10:14:38.875Z,67.94
2018-09-26T10:15:38.859Z,67.27
2018-09-26T10:16:38.838Z,67.94
2018-09-26T10:17:39.016Z,70.62
2018-09-26T10:18:38.776Z,71.20
2018-09-26T10:19:38.785Z,71.48
2018-09-26T10:20:38.744Z,71.77
2018-09-26T10:21:38.713Z,68.52
2018-09-26T10:22:38.723Z,69.48
2018-09-26T10:23:38.685Z,70.62
2018-09-26T10:24:38.672Z,67.85
2018-09-26T10:25:38.631Z,66.64
2018-09-26T10:26:38.621Z,66.06
2018-09-26T10:27:38.613Z,65.84
2018-09-26T10:28:38.606Z,66.25
2018-09-26T10:29:38.560Z,65.08
2018-09-26T10:30:38.540Z,66.61
2018-09-26T10:31:38.524Z,66.45
2018-09-26T10:32:38.514Z,67.37
2018-09-26T10:33:38.494Z,68.27
2018-09-26T10:34:38.493Z,68.94
2018-09-26T10:35:38.484Z,69.03
2018-09-26T10:36:38.468Z,69.51
2018-09-26T10:37:38.432Z,69.80
2018-09-26T10:38:38.394Z,70.37
2018-09-26T10:39:38.390Z,69.42
2018-09-26T10:40:38.356Z,68.74
2018-09-26T10:41:38.327Z,66.74
2018-09-26T10:42:38.341Z,65.20
2018-09-26T10:43:38.336Z,65.11
2018-09-26T10:44:38.297Z,66.45
2018-09-26T10:45:38.260Z,66.35
2018-09-26T10:46:38.300Z,67.31
2018-09-26T10:47:38.236Z,66.64
2018-09-26T10:48:38.222Z,66.45
2018-09-26T10:49:38.209Z,65.68
2018-09-26T10:50:38.166Z,65.62
2018-09-26T10:51:38.166Z,67.34
2018-09-26T10:52:38.130Z,66.96
2018-09-26T10:53:38.123Z,66.86
2018-09-26T10:54:38.107Z,66.48
2018-09-26T10:55:38.093Z,66.58
2018-09-26T10:56:38.217Z,63.57
2018-09-26T10:57:38.044Z,64.15
2018-09-26T10:58:38.020Z,65.20
2018-09-26T10:59:38.002Z,64.92
2018-09-26T11:00:37.973Z,65.88
2018-09-26T11:01:37.957Z,66.74
2018-09-26T11:02:38.071Z,67.05
2018-09-26T11:04:37.910Z,65.71
2018-09-26T11:05:37.889Z,66.58
2018-09-26T11:06:37.873Z,65.81
2018-09-26T11:07:37.877Z,65.91
2018-09-26T11:08:37.828Z,65.52
2018-09-26T11:09:37.803Z,64.85
2018-09-26T11:10:37.801Z,64.56
2018-09-26T11:11:37.805Z,64.85
2018-09-26T11:12:37.771Z,65.23
2018-09-26T11:13:37.750Z,65.05
2018-09-26T11:14:37.732Z,65.14
2018-09-26T11:15:37.724Z,65.26
2018-09-26T11:16:37.686Z,65.36
2018-09-26T11:17:37.655Z,66.32
2018-09-26T11:18:37.638Z,65.94
2018-09-26T11:19:37.624Z,65.17
2018-09-26T11:20:37.630Z,65.26
2018-09-26T11:21:37.612Z,64.50
2018-09-26T11:22:37.580Z,64.50
2018-09-26T11:23:37.571Z,64.31
2018-09-26T11:24:37.543Z,66.51
2018-09-26T11:25:37.507Z,66.80
2018-09-26T11:26:37.581Z,66.03
2018-09-26T11:27:37.493Z,64.79
2018-09-26T11:28:37.458Z,64.50
2018-09-26T11:29:37.462Z,64.31
2018-09-26T11:30:37.433Z,65.26
2018-09-26T11:31:37.432Z,65.08
2018-09-26T11:32:37.375Z,64.05
2018-09-26T11:33:37.392Z,64.34
2018-09-26T11:34:37.364Z,62.52
2018-09-26T11:35:37.326Z,63.48
2018-09-26T11:36:37.325Z,63.76
2018-09-26T11:37:37.318Z,62.81
2018-09-26T11:38:37.268Z,63.09
2018-09-26T11:39:37.258Z,62.81
2018-09-26T11:40:37.227Z,63.57
2018-09-26T11:41:37.216Z,63.48
2018-09-26T11:42:37.200Z,63.00
2018-09-26T11:43:37.198Z,63.76
2018-09-26T11:44:37.204Z,63.09
2018-09-26T11:45:37.157Z,62.81
2018-09-26T11:46:37.121Z,62.04
2018-09-26T11:47:37.117Z,62.23
2018-09-26T11:48:37.134Z,62.81
2018-09-26T11:49:37.069Z,62.36
2018-09-26T11:50:37.051Z,61.94
2018-09-26T11:51:37.035Z,62.36
2018-09-26T11:52:37.035Z,61.78
2018-09-26T11:53:37.027Z,62.16
2018-09-26T11:54:36.991Z,61.98
2018-09-26T11:55:36.974Z,62.36
2018-09-26T11:56:36.963Z,61.11
2018-09-26T11:57:36.935Z,61.49
2018-09-26T11:58:36.915Z,61.78
2018-09-26T11:59:36.919Z,61.11
2018-09-26T12:00:36.868Z,60.92
2018-09-26T12:01:36.854Z,62.16
2018-09-26T12:02:36.845Z,62.26
2018-09-26T12:03:36.859Z,61.02
2018-09-26T12:04:36.803Z,59.96
2018-09-26T12:05:36.837Z,61.88
2018-09-26T12:06:36.791Z,60.82
2018-09-26T12:07:36.805Z,58.52
2018-09-26T12:08:36.722Z,55.93
2018-09-26T12:09:36.718Z,56.89
2018-09-26T12:10:36.683Z,57.53
2018-09-26T12:11:36.669Z,58.97
2018-09-26T12:12:36.661Z,58.14
2018-09-26T12:13:36.677Z,58.49
2018-09-26T12:14:36.658Z,58.14
2018-09-26T12:15:36.620Z,57.65
2018-09-26T12:16:36.589Z,57.92
2018-09-26T12:17:36.581Z,58.62
2018-09-26T12:18:36.546Z,58.23
2018-09-26T12:19:36.570Z,56.60
2018-09-26T12:20:36.524Z,57.56
2018-09-26T12:21:36.551Z,58.04
2018-09-26T12:22:36.570Z,58.23
2018-09-26T12:23:36.452Z,56.60
2018-09-26T12:24:36.458Z,55.74
2018-09-26T12:25:36.431Z,56.98
2018-09-26T12:26:36.413Z,56.79
2018-09-26T12:27:36.377Z,58.23
2018-09-26T12:28:36.382Z,59.48
2018-09-26T12:29:36.364Z,59.96
2018-09-26T12:30:36.320Z,59.58
2018-09-26T12:31:36.306Z,59.00
2018-09-26T12:32:36.284Z,59.29
2018-09-26T12:33:36.272Z,59.96
2018-09-26T12:34:36.290Z,58.07
2018-09-26T12:35:36.242Z,57.68
2018-09-26T12:36:36.217Z,58.17
2018-09-26T12:37:36.201Z,57.11
2018-09-26T12:38:36.184Z,57.59
2018-09-26T12:39:36.174Z,58.94
2018-09-26T12:40:36.153Z,57.30
2018-09-26T12:41:36.154Z,57.59
2018-09-26T12:42:36.167Z,57.59
2018-09-26T12:43:36.096Z,56.34
2018-09-26T12:44:36.090Z,55.10
2018-09-26T12:45:36.073Z,55.38
2018-09-26T12:46:36.052Z,56.37
2018-09-26T12:47:36.022Z,56.76
2018-09-26T12:48:36.136Z,56.95
2018-09-26T12:49:35.997Z,56.76
2018-09-26T12:50:35.982Z,56.46
2018-09-26T12:51:35.958Z,56.95
2018-09-26T12:52:35.930Z,55.89
2018-09-26T12:53:35.988Z,54.93
2018-09-26T12:54:35.895Z,55.02